Time,TemperatureF,DewpointF,PressureIn,WindDirection,WindDirectionDegrees,WindSpeedMPH,WindSpeedGustMPH,Humidity,HourlyPrecipIn,Conditions,Clouds,dailyrainin,SolarRadiationWatts/m^2,SoftwareType,DateUTC
2013-03-27 00:00:00,25.9,16.4,28.70,SSW,195,12.0,15.0,67,0.00,CLR,FEW,0.00,0.0,WeatherDisplay:10.37,2013-03-26 23:00:00,
2013-03-27 00:05:00,25.9,16.4,28.70,South,190,5.8,6.0,67,0.00,CLR,FEW,0.00,0.0,WeatherDisplay:10.37,2013-03-26 23:05:00,
2013-03-27 00:10:00,26.1,16.6,28.70,SSE,150,6.9,7.1,67,0.00,CLR,FEW,0.00,0.0,WeatherDisplay:10.37,2013-03-26 23:10:00,
2013-03-27 00:15:00,26.1,16.2,28.70,South,180,5.8,6.2,66,0.00,CLR,FEW,0.00,0.0,WeatherDisplay:10.37,2013-03-26 23:15:00,
2013-03-27 00:20:00,26.2,16.1,28.70,SSW,200,11.5,11.5,65,0.00,CLR,FEW,0.00,0.0,WeatherDisplay:10.37,2013-03-26 23:20:00,
2013-03-27 00:25:00,26.2,16.1,28.70,SSW,200,11.5,11.5,65,0.00,CLR,FEW,0.00,0.0,WeatherDisplay:10.37,2013-03-26 23:25:00,
2013-03-27 00:30:00,26.2,16.1,28.70,South,190,12.7,12.7,65,0.00,CLR,FEW,0.00,0.0,WeatherDisplay:10.37,2013-03-26 23:30:00,
2013-03-27 00:35:00,26.4,15.9,28.70,SSE,155,11.5,11.7,64,0.00,CLR,FEW,0.00,0.0,WeatherDisplay:10.37,2013-03-26 23:35:00,
2013-03-27 00:40:00,26.2,15.7,28.70,SSW,195,10.4,10.5,64,0.00,CLR,FEW,0.00,0.0,WeatherDisplay:10.37,2013-03-26 23:40:00,
2013-03-27 00:45:00,26.4,15.9,28.70,SSW,195,6.9,7.1,64,0.00,CLR,FEW,0.00,0.0,WeatherDisplay:10.37,2013-03-26 23:45:00,
2013-03-27 00:50:00,26.4,15.5,28.70,SE,140,9.2,9.2,63,0.00,CLR,FEW,0.00,0.0,WeatherDisplay:10.37,2013-03-26 23:50:00,
2013-03-27 00:55:00,26.4,15.5,28.70,SE,140,9.2,9.2,63,0.00,CLR,FEW,0.00,0.0,WeatherDisplay:10.37,2013-03-26 23:55:00,
2013-03-27 01:00:00,26.6,15.7,28.70,West,265,6.9,7.1,63,0.00,CLR,FEW,0.00,0.0,WeatherDisplay:10.37,2013-03-27 00:00:00,
2013-03-27 01:05:00,26.6,15.3,28.70,South,175,6.9,7.1,62,0.00,CLR,FEW,0.00,0.0,WeatherDisplay:10.37,2013-03-27 00:05:00,
2013-03-27 01:10:00,26.6,15.3,28.70,SE,145,8.1,8.3,62,0.00,CLR,FEW,0.00,0.0,WeatherDisplay:10.37,2013-03-27 00:10:00,
2013-03-27 01:15:00,26.4,15.2,28.70,SSE,165,10.4,10.5,62,0.00,CLR,FEW,0.00,0.0,WeatherDisplay:10.37,2013-03-27 00:15:00,
2013-03-27 01:20:00,26.4,15.5,28.70,SW,215,8.1,8.1,63,0.00,CLR,FEW,0.00,0.0,WeatherDisplay:10.37,2013-03-27 00:20:00,
2013-03-27 01:25:00,26.4,15.5,28.70,SW,215,8.1,8.1,63,0.00,CLR,FEW,0.00,0.0,WeatherDisplay:10.37,2013-03-27 00:25:00,
2013-03-27 01:30:00,26.4,15.5,28.70,SSE,150,9.2,9.8,63,0.00,CLR,FEW,0.00,0.0,WeatherDisplay:10.37,2013-03-27 00:30:00,
2013-03-27 01:35:00,26.2,15.3,28.70,SSW,200,9.2,9.6,63,0.00,CLR,FEW,0.00,0.0,WeatherDisplay:10.37,2013-03-27 00:35:00,
2013-03-27 01:40:00,26.2,15.7,28.70,South,170,6.9,7.1,64,0.00,CLR,FEW,0.00,0.0,WeatherDisplay:10.37,2013-03-27 00:40:00,
2013-03-27 01:45:00,26.1,15.5,28.70,South,175,10.4,10.5,64,0.00,CLR,FEW,0.00,0.0,WeatherDisplay:10.37,2013-03-27 00:45:00,
2013-03-27 01:50:00,26.1,15.5,28.70,SSE,150,9.2,9.2,64,0.00,CLR,FEW,0.00,0.0,WeatherDisplay:10.37,2013-03-27 00:50:00,
2013-03-27 01:55:00,26.1,15.5,28.70,SSE,150,9.2,9.2,64,0.00,CLR,FEW,0.00,0.0,WeatherDisplay:10.37,2013-03-27 00:55:00,
2013-03-27 02:00:00,26.2,15.7,28.70,SSE,155,9.2,9.4,64,0.00,CLR,FEW,0.00,0.0,WeatherDisplay:10.37,2013-03-27 01:00:00,
2013-03-27 02:05:00,26.1,15.5,28.70,ESE,115,9.2,9.8,64,0.00,CLR,FEW,0.00,0.0,WeatherDisplay:10.37,2013-03-27 01:05:00,
2013-03-27 02:10:00,26.1,15.5,28.70,SSE,165,9.2,9.2,64,0.00,CLR,FEW,0.00,0.0,WeatherDisplay:10.37,2013-03-27 01:10:00,
2013-03-27 02:15:00,25.9,15.7,28.70,South,190,9.2,9.8,65,0.00,CLR,FEW,0.00,0.0,WeatherDisplay:10.37,2013-03-27 01:15:00,
2013-03-27 02:20:00,25.9,15.7,28.70,South,175,8.1,8.3,65,0.00,CLR,FEW,0.00,0.0,WeatherDisplay:10.37,2013-03-27 01:20:00,
2013-03-27 02:25:00,25.9,15.7,28.70,South,175,8.1,8.3,65,0.00,CLR,FEW,0.00,0.0,WeatherDisplay:10.37,2013-03-27 01:25:00,
2013-03-27 02:30:00,25.7,15.6,28.67,South,185,10.4,10.4,65,0.00,CLR,FEW,0.00,0.0,WeatherDisplay:10.37,2013-03-27 01:30:00,
2013-03-27 02:35:00,25.7,15.6,28.67,SSE,150,11.5,11.5,65,0.00,CLR,FEW,0.00,0.0,WeatherDisplay:10.37,2013-03-27 01:35:00,
2013-03-27 02:40:00,25.7,15.9,28.67,SSW,205,6.9,6.9,66,0.00,CLR,FEW,0.00,0.0,WeatherDisplay:10.37,2013-03-27 01:40:00,
2013-03-27 02:45:00,25.7,15.6,28.67,SSW,205,9.2,9.8,65,0.00,CLR,FEW,0.00,0.0,WeatherDisplay:10.37,2013-03-27 01:45:00,
2013-03-27 02:50:00,25.7,15.6,28.67,South,170,9.2,9.2,65,0.00,CLR,FEW,0.00,0.0,WeatherDisplay:10.37,2013-03-27 01:50:00,
2013-03-27 02:55:00,25.7,15.6,28.67,South,170,9.2,9.2,65,0.00,CLR,FEW,0.00,0.0,WeatherDisplay:10.37,2013-03-27 01:55:00,
2013-03-27 03:00:00,25.7,15.6,28.67,South,175,8.1,8.1,65,0.00,CLR,FEW,0.00,0.0,WeatherDisplay:10.37,2013-03-27 02:00:00,
2013-03-27 03:05:00,25.7,15.6,28.67,SSE,150,6.9,6.9,65,0.00,CLR,FEW,0.00,0.0,WeatherDisplay:10.37,2013-03-27 02:05:00,
2013-03-27 03:10:00,25.7,15.9,28.67,SSW,210,9.2,9.2,66,0.00,CLR,FEW,0.00,0.0,WeatherDisplay:10.37,2013-03-27 02:10:00,
2013-03-27 03:15:00,25.5,16.1,28.70,SSE,155,9.2,9.4,67,0.00,CLR,FEW,0.00,0.0,WeatherDisplay:10.37,2013-03-27 02:15:00,
2013-03-27 03:20:00,25.5,16.1,28.70,SSE,155,9.2,9.4,67,0.00,CLR,FEW,0.00,0.0,WeatherDisplay:10.37,2013-03-27 02:20:00,
2013-03-27 03:25:00,25.5,16.1,28.70,SSE,155,9.2,9.4,67,0.00,CLR,FEW,0.00,0.0,WeatherDisplay:10.37,2013-03-27 02:25:00,
2013-03-27 03:30:00,25.3,16.2,28.67,SSE,165,10.4,10.4,68,0.00,CLR,FEW,0.00,0.0,WeatherDisplay:10.37,2013-03-27 02:30:00,
2013-03-27 03:35:00,25.2,16.4,28.67,SSW,200,10.4,10.4,69,0.00,CLR,FEW,0.00,0.0,WeatherDisplay:10.37,2013-03-27 02:35:00,
2013-03-27 03:40:00,25.2,16.4,28.67,South,170,8.1,8.1,69,0.00,CLR,FEW,0.00,0.0,WeatherDisplay:10.37,2013-03-27 02:40:00,
2013-03-27 03:45:00,25.2,16.4,28.67,SSE,165,6.9,7.3,69,0.00,CLR,FEW,0.00,0.0,WeatherDisplay:10.37,2013-03-27 02:45:00,
2013-03-27 03:50:00,25.2,16.4,28.67,SSE,165,6.9,7.3,69,0.00,CLR,FEW,0.00,0.0,WeatherDisplay:10.37,2013-03-27 02:50:00,
2013-03-27 03:55:00,25.2,16.4,28.67,SSE,165,6.9,7.3,69,0.00,CLR,FEW,0.00,0.0,WeatherDisplay:10.37,2013-03-27 02:55:00,
2013-03-27 04:00:00,25.2,16.4,28.67,South,175,9.2,9.2,69,0.00,CLR,FEW,0.00,0.0,WeatherDisplay:10.37,2013-03-27 03:00:00,
2013-03-27 04:05:00,25.2,16.4,28.67,South,175,6.9,6.9,69,0.00,CLR,FEW,0.00,0.0,WeatherDisplay:10.37,2013-03-27 03:05:00,
2013-03-27 04:10:00,25.2,16.4,28.67,South,185,6.9,7.0,69,0.00,CLR,FEW,0.00,0.0,WeatherDisplay:10.37,2013-03-27 03:10:00,
2013-03-27 04:15:00,25.3,16.2,28.67,South,170,6.9,7.3,68,0.00,CLR,FEW,0.00,0.0,WeatherDisplay:10.37,2013-03-27 03:15:00,
2013-03-27 04:20:00,25.2,16.1,28.67,SSW,210,6.9,7.1,68,0.00,CLR,FEW,0.00,0.0,WeatherDisplay:10.37,2013-03-27 03:20:00,
2013-03-27 04:25:00,25.2,16.1,28.67,SSW,210,6.9,7.1,68,0.00,CLR,FEW,0.00,0.0,WeatherDisplay:10.37,2013-03-27 03:25:00,
2013-03-27 04:30:00,25.2,16.4,28.67,SSW,200,6.9,7.3,69,0.00,CLR,FEW,0.00,0.0,WeatherDisplay:10.37,2013-03-27 03:30:00,
2013-03-27 04:35:00,25.2,16.4,28.67,South,175,6.9,7.3,69,0.00,CLR,FEW,0.00,0.0,WeatherDisplay:10.37,2013-03-27 03:35:00,
2013-03-27 04:40:00,24.8,16.4,28.67,SSE,160,8.1,8.1,70,0.00,CLR,FEW,0.00,0.0,WeatherDisplay:10.37,2013-03-27 03:40:00,
2013-03-27 04:45:00,24.6,16.6,28.67,SSE,155,6.9,6.9,71,0.00,CLR,FEW,0.00,0.0,WeatherDisplay:10.37,2013-03-27 03:45:00,
2013-03-27 04:50:00,24.6,16.9,28.67,SE,135,4.6,4.6,72,0.00,CLR,FEW,0.00,0.0,WeatherDisplay:10.37,2013-03-27 03:50:00,
2013-03-27 04:55:00,24.6,16.9,28.67,SE,135,4.6,4.6,72,0.00,CLR,FEW,0.00,0.0,WeatherDisplay:10.37,2013-03-27 03:55:00,
2013-03-27 05:00:00,24.4,16.7,28.67,South,173,5.0,8.0,72,0.00,CLR,FEW,0.00,0.0,WeatherDisplay:10.37,2013-03-27 04:00:00,
2013-03-27 05:05:00,24.6,16.9,28.67,South,185,3.5,3.8,72,0.00,CLR,FEW,0.00,0.0,WeatherDisplay:10.37,2013-03-27 04:05:00,
2013-03-27 05:10:00,24.6,16.6,28.67,SSW,195,3.5,3.5,71,0.00,CLR,FEW,0.00,0.0,WeatherDisplay:10.37,2013-03-27 04:10:00,
2013-03-27 05:15:00,24.8,16.7,28.70,South,185,3.5,3.5,71,0.00,CLR,FEW,0.00,0.0,WeatherDisplay:10.37,2013-03-27 04:15:00,
2013-03-27 05:20:00,25.0,16.6,28.70,SSE,155,4.6,5.1,70,0.00,OVC,FEW,0.00,0.0,WeatherDisplay:10.37,2013-03-27 04:20:00,
2013-03-27 05:25:00,25.0,16.6,28.70,SSE,155,4.6,5.1,70,0.00,OVC,FEW,0.00,0.0,WeatherDisplay:10.37,2013-03-27 04:25:00,
2013-03-27 05:30:00,25.2,16.1,28.67,SSW,205,8.1,8.1,68,0.00,OVC,FEW,0.00,0.0,WeatherDisplay:10.37,2013-03-27 04:30:00,
2013-03-27 05:35:00,25.2,15.7,28.67,South,185,9.2,9.2,67,0.00,OVC,FEW,0.00,0.0,WeatherDisplay:10.37,2013-03-27 04:35:00,
2013-03-27 05:40:00,25.0,16.2,28.67,SSE,155,10.4,10.4,69,0.00,OVC,FEW,0.00,0.0,WeatherDisplay:10.37,2013-03-27 04:40:00,
2013-03-27 05:45:00,24.8,16.1,28.67,South,175,6.9,7.1,69,0.00,OVC,FEW,0.00,0.0,WeatherDisplay:10.37,2013-03-27 04:45:00,
2013-03-27 05:50:00,24.6,16.2,28.67,SSW,200,6.9,6.9,70,0.00,OVC,FEW,0.00,0.0,WeatherDisplay:10.37,2013-03-27 04:50:00,
2013-03-27 05:55:00,24.6,16.2,28.67,SSW,200,6.9,6.9,70,0.00,OVC,FEW,0.00,0.0,WeatherDisplay:10.37,2013-03-27 04:55:00,
2013-03-27 06:00:00,24.6,16.6,28.67,SSW,200,5.8,5.8,71,0.00,OVC,FEW,0.00,0.0,WeatherDisplay:10.37,2013-03-27 05:00:00,
2013-03-27 06:05:00,24.6,16.9,28.67,SSE,150,8.1,8.1,72,0.00,OVC,FEW,0.00,0.0,WeatherDisplay:10.37,2013-03-27 05:05:00,
2013-03-27 06:10:00,24.6,16.9,28.67,SW,230,6.9,6.9,72,0.00,OVC,FEW,0.00,0.0,WeatherDisplay:10.37,2013-03-27 05:10:00,
2013-03-27 06:15:00,24.6,16.9,28.67,SSW,195,5.8,5.8,72,0.00,OVC,FEW,0.00,0.0,WeatherDisplay:10.37,2013-03-27 05:15:00,
2013-03-27 06:20:00,24.4,16.7,28.67,SSE,165,8.1,8.3,72,0.00,OVC,FEW,0.00,0.0,WeatherDisplay:10.37,2013-03-27 05:20:00,
2013-03-27 06:25:00,24.4,16.7,28.67,SSE,165,8.1,8.3,72,0.00,OVC,FEW,0.00,0.0,WeatherDisplay:10.37,2013-03-27 05:25:00,
2013-03-27 06:30:00,24.6,16.9,28.67,SE,145,6.9,7.0,72,0.00,OVC,FEW,0.00,0.0,WeatherDisplay:10.37,2013-03-27 05:30:00,
2013-03-27 06:35:00,24.6,16.9,28.67,SSW,195,5.8,6.0,72,0.00,OVC,FEW,0.00,0.0,WeatherDisplay:10.37,2013-03-27 05:35:00,
2013-03-27 06:40:00,24.8,17.1,28.67,South,170,4.6,4.7,72,0.00,OVC,FEW,0.00,0.0,WeatherDisplay:10.37,2013-03-27 05:40:00,
2013-03-27 06:45:00,25.0,17.2,28.67,SW,215,5.8,6.0,72,0.00,OVC,FEW,0.00,0.0,WeatherDisplay:10.37,2013-03-27 05:45:00,
2013-03-27 06:50:00,25.0,17.2,28.67,South,185,6.9,7.1,72,0.00,OVC,FEW,0.00,0.0,WeatherDisplay:10.37,2013-03-27 05:50:00,
2013-03-27 06:56:00,25.0,17.2,28.67,South,180,8.1,8.1,72,0.00,OVC,FEW,0.00,0.0,WeatherDisplay:10.37,2013-03-27 05:56:00,
2013-03-27 07:01:00,25.0,17.2,28.67,South,180,8.1,8.1,72,0.00,OVC,FEW,0.00,0.0,WeatherDisplay:10.37,2013-03-27 06:01:00,
2013-03-27 07:06:00,25.0,17.2,28.67,South,175,8.1,8.1,72,0.00,OVC,FEW,0.00,0.0,WeatherDisplay:10.37,2013-03-27 06:06:00,
2013-03-27 07:11:00,25.2,17.4,28.67,SSW,205,6.9,7.3,72,0.00,OVC,FEW,0.00,0.0,WeatherDisplay:10.37,2013-03-27 06:11:00,
2013-03-27 07:16:00,25.0,17.2,28.70,SSW,200,9.2,9.8,72,0.00,OVC,FEW,0.00,0.0,WeatherDisplay:10.37,2013-03-27 06:16:00,
2013-03-27 07:21:00,25.2,17.4,28.70,SW,230,5.8,5.8,72,0.00,OVC,FEW,0.00,0.0,WeatherDisplay:10.37,2013-03-27 06:21:00,
2013-03-27 07:26:00,25.3,17.6,28.67,SSE,165,7.0,7.0,72,0.00,OVC,FEW,0.00,0.0,WeatherDisplay:10.37,2013-03-27 06:26:00,
2013-03-27 07:31:00,25.3,17.6,28.67,SSE,165,6.9,7.0,72,0.00,OVC,FEW,0.00,0.0,WeatherDisplay:10.37,2013-03-27 06:31:00,
2013-03-27 07:36:00,25.2,17.4,28.67,South,175,8.1,8.1,72,0.00,OVC,FEW,0.00,0.0,WeatherDisplay:10.37,2013-03-27 06:36:00,
2013-03-27 07:41:00,25.2,17.7,28.67,South,180,9.2,9.2,73,0.00,OVC,FEW,0.00,0.0,WeatherDisplay:10.37,2013-03-27 06:41:00,
2013-03-27 07:46:00,25.3,17.9,28.67,South,180,9.2,9.4,73,0.00,OVC,FEW,0.00,0.0,WeatherDisplay:10.37,2013-03-27 06:46:00,
2013-03-27 07:51:00,25.2,18.0,28.67,SSW,195,8.1,8.1,74,0.00,OVC,FEW,0.00,0.0,WeatherDisplay:10.37,2013-03-27 06:51:00,
2013-03-27 07:56:00,24.8,18.6,28.67,South,190,9.2,9.2,77,0.00,OVC,FEW,0.00,0.0,WeatherDisplay:10.37,2013-03-27 06:56:00,
2013-03-27 08:01:00,24.8,18.9,28.67,SW,220,6.9,7.0,78,0.00,OVC,FEW,0.00,0.0,WeatherDisplay:10.37,2013-03-27 07:01:00,
2013-03-27 08:07:00,24.8,18.9,28.67,SW,220,6.9,7.0,78,0.00,OVC,FEW,0.00,0.0,WeatherDisplay:10.37,2013-03-27 07:07:00,
2013-03-27 08:12:00,24.8,19.2,28.67,SSW,200,6.9,6.9,79,0.00,OVC,FEW,0.00,0.0,WeatherDisplay:10.37,2013-03-27 07:12:00,
2013-03-27 08:17:00,24.6,19.3,28.67,SW,215,9.2,9.8,80,0.00,OVC,FEW,0.00,0.0,WeatherDisplay:10.37,2013-03-27 07:17:00,
2013-03-27 08:22:00,24.8,19.8,28.67,SSW,200,9.2,9.8,81,0.00,OVC,FEW,0.00,0.0,WeatherDisplay:10.37,2013-03-27 07:22:00,
2013-03-27 08:27:00,24.8,19.8,28.70,SSE,155,9.2,9.2,81,0.00,OVC,FEW,0.00,0.0,WeatherDisplay:10.37,2013-03-27 07:27:00,
2013-03-27 08:32:00,25.0,20.0,28.70,South,170,8.1,8.1,81,0.00,OVC,FEW,0.00,0.0,WeatherDisplay:10.37,2013-03-27 07:32:00,
2013-03-27 08:37:00,25.0,20.0,28.70,South,170,8.1,8.1,81,0.00,OVC,FEW,0.00,0.0,WeatherDisplay:10.37,2013-03-27 07:37:00,
2013-03-27 08:42:00,25.0,20.0,28.70,SSE,150,9.2,9.2,81,0.00,OVC,FEW,0.00,0.0,WeatherDisplay:10.37,2013-03-27 07:42:00,
2013-03-27 08:47:00,25.3,20.6,28.70,SE,130,9.2,9.6,82,0.00,OVC,FEW,0.00,0.0,WeatherDisplay:10.37,2013-03-27 07:47:00,
2013-03-27 08:52:00,25.5,20.8,28.70,South,175,9.2,9.2,82,0.00,OVC,FEW,0.00,0.0,WeatherDisplay:10.37,2013-03-27 07:52:00,
2013-03-27 08:57:00,25.9,21.1,28.67,SSW,205,6.9,7.3,82,0.00,OVC,FEW,0.00,0.0,WeatherDisplay:10.37,2013-03-27 07:57:00,
2013-03-27 09:02:00,26.4,21.7,28.67,South,170,6.9,7.0,82,0.00,OVC,FEW,0.00,0.0,WeatherDisplay:10.37,2013-03-27 08:02:00,
2013-03-27 09:07:00,25.9,21.1,28.67,SSE,150,11.5,11.5,82,0.00,OVC,FEW,0.00,0.0,WeatherDisplay:10.37,2013-03-27 08:07:00,
2013-03-27 09:12:00,25.9,21.1,28.67,SSE,150,11.5,11.5,82,0.00,OVC,FEW,0.00,0.0,WeatherDisplay:10.37,2013-03-27 08:12:00,
2013-03-27 09:17:00,26.1,21.3,28.67,South,190,9.2,9.2,82,0.00,OVC,FEW,0.00,0.0,WeatherDisplay:10.37,2013-03-27 08:17:00,
2013-03-27 09:22:00,26.2,21.8,28.67,SSE,155,6.9,7.3,83,0.00,OVC,FEW,0.00,0.0,WeatherDisplay:10.37,2013-03-27 08:22:00,
2013-03-27 09:27:00,26.4,22.0,28.70,SSE,160,9.2,9.4,83,0.00,OVC,FEW,0.00,0.0,WeatherDisplay:10.37,2013-03-27 08:27:00,
2013-03-27 09:32:00,26.8,22.0,28.70,SSW,195,8.1,8.3,82,0.00,OVC,FEW,0.00,0.0,WeatherDisplay:10.37,2013-03-27 08:32:00,
2013-03-27 09:37:00,26.8,22.0,28.70,SSW,195,8.1,8.3,82,0.00,OVC,FEW,0.00,0.0,WeatherDisplay:10.37,2013-03-27 08:37:00,
2013-03-27 09:42:00,26.2,21.2,28.70,SSE,165,10.4,10.5,81,0.00,OVC,FEW,0.00,0.0,WeatherDisplay:10.37,2013-03-27 08:42:00,
2013-03-27 09:47:00,26.2,21.5,28.70,South,170,10.4,10.5,82,0.00,OVC,FEW,0.00,0.0,WeatherDisplay:10.37,2013-03-27 08:47:00,
2013-03-27 09:52:00,27.0,22.2,28.70,South,175,9.2,9.6,82,0.00,OVC,FEW,0.00,0.0,WeatherDisplay:10.37,2013-03-27 08:52:00,
2013-03-27 09:57:00,26.8,22.0,28.67,SSW,205,9.2,9.2,82,0.00,OVC,FEW,0.00,0.0,WeatherDisplay:10.37,2013-03-27 08:57:00,
2013-03-27 10:02:00,27.0,21.9,28.67,SE,145,10.4,10.4,81,0.00,OVC,FEW,0.00,0.0,WeatherDisplay:10.37,2013-03-27 09:02:00,
2013-03-27 10:07:00,26.6,21.6,28.67,SSE,150,10.4,10.4,81,0.00,OVC,FEW,0.00,0.0,WeatherDisplay:10.37,2013-03-27 09:07:00,
2013-03-27 10:12:00,26.6,21.6,28.67,SSE,150,10.4,10.4,81,0.00,OVC,FEW,0.00,0.0,WeatherDisplay:10.37,2013-03-27 09:12:00,
2013-03-27 10:17:00,26.6,21.6,28.70,South,170,9.2,9.4,81,0.00,OVC,FEW,0.00,0.0,WeatherDisplay:10.37,2013-03-27 09:17:00,
2013-03-27 10:22:00,26.6,21.0,28.70,SE,145,11.5,11.9,79,0.00,OVC,FEW,0.00,0.0,WeatherDisplay:10.37,2013-03-27 09:22:00,
2013-03-27 10:27:00,27.5,21.5,28.70,South,175,9.2,9.8,78,0.00,OVC,FEW,0.00,0.0,WeatherDisplay:10.37,2013-03-27 09:27:00,
2013-03-27 10:32:00,27.3,21.4,28.70,SSW,200,10.4,10.4,78,0.00,OVC,FEW,0.00,0.0,WeatherDisplay:10.37,2013-03-27 09:32:00,
2013-03-27 10:37:00,27.3,21.4,28.70,SSW,200,10.4,10.4,78,0.00,OVC,FEW,0.00,0.0,WeatherDisplay:10.37,2013-03-27 09:37:00,
2013-03-27 10:42:00,27.3,21.4,28.70,SSE,150,11.5,11.5,78,0.00,OVC,FEW,0.00,0.0,WeatherDisplay:10.37,2013-03-27 09:42:00,
2013-03-27 10:47:00,27.5,21.2,28.70,SSE,155,6.9,6.9,77,0.00,OVC,FEW,0.00,0.0,WeatherDisplay:10.37,2013-03-27 09:47:00,
2013-03-27 10:52:00,27.5,21.5,28.70,SW,220,10.4,10.4,78,0.00,OVC,FEW,0.00,0.0,WeatherDisplay:10.37,2013-03-27 09:52:00,
2013-03-27 10:57:00,27.9,21.3,28.70,SSE,155,11.5,11.5,76,0.00,OVC,FEW,0.00,0.0,WeatherDisplay:10.37,2013-03-27 09:57:00,
2013-03-27 11:02:00,27.7,21.4,28.70,SSE,155,12.7,12.8,77,0.00,OVC,FEW,0.00,0.0,WeatherDisplay:10.37,2013-03-27 10:02:00,
2013-03-27 11:07:00,28.0,21.8,28.70,SSE,150,8.1,8.1,77,0.00,OVC,FEW,0.00,0.0,WeatherDisplay:10.37,2013-03-27 10:07:00,
2013-03-27 11:13:00,28.0,21.8,28.70,SSE,150,8.1,8.1,77,0.00,OVC,FEW,0.00,0.0,WeatherDisplay:10.37,2013-03-27 10:13:00,
2013-03-27 11:18:00,28.2,21.9,28.70,South,190,9.2,9.2,77,0.00,OVC,FEW,0.00,0.0,WeatherDisplay:10.37,2013-03-27 10:18:00,
2013-03-27 11:23:00,28.0,21.8,28.70,SE,135,8.1,8.1,77,0.00,OVC,FEW,0.00,0.0,WeatherDisplay:10.37,2013-03-27 10:23:00,
2013-03-27 11:28:00,28.6,22.6,28.70,SSE,155,8.1,8.1,78,0.00,OVC,FEW,0.00,0.0,WeatherDisplay:10.37,2013-03-27 10:28:00,
2013-03-27 11:33:00,28.6,22.6,28.70,SSE,155,8.1,8.1,78,0.00,OVC,FEW,0.00,0.0,WeatherDisplay:10.37,2013-03-27 10:33:00,
2013-03-27 11:38:00,28.6,22.6,28.70,SSE,155,8.1,8.1,78,0.00,OVC,FEW,0.00,0.0,WeatherDisplay:10.37,2013-03-27 10:38:00,
2013-03-27 11:43:00,28.4,22.4,28.70,SE,130,11.5,11.5,78,0.00,OVC,FEW,0.00,0.0,WeatherDisplay:10.37,2013-03-27 10:43:00,
2013-03-27 11:48:00,28.2,22.2,28.70,South,175,9.2,9.8,78,0.00,OVC,FEW,0.00,0.0,WeatherDisplay:10.37,2013-03-27 10:48:00,
2013-03-27 11:53:00,28.0,22.1,28.70,SSW,205,9.2,9.8,78,0.00,OVC,FEW,0.00,0.0,WeatherDisplay:10.37,2013-03-27 10:53:00,
2013-03-27 11:58:00,27.9,21.9,28.67,SW,215,9.2,9.6,78,0.00,OVC,FEW,0.00,0.0,WeatherDisplay:10.37,2013-03-27 10:58:00,
2013-03-27 12:03:00,28.2,22.5,28.67,South,170,8.1,8.1,79,0.00,OVC,FEW,0.00,0.0,WeatherDisplay:10.37,2013-03-27 11:03:00,
2013-03-27 12:08:00,28.0,22.4,28.67,South,170,8.1,8.1,79,0.00,OVC,FEW,0.00,0.0,WeatherDisplay:10.37,2013-03-27 11:08:00,
2013-03-27 12:13:00,28.0,22.4,28.67,South,170,8.1,8.1,79,0.00,OVC,FEW,0.00,0.0,WeatherDisplay:10.37,2013-03-27 11:13:00,
2013-03-27 12:18:00,28.2,22.8,28.67,South,185,6.9,7.1,80,0.00,OVC,FEW,0.00,0.0,WeatherDisplay:10.37,2013-03-27 11:18:00,
2013-03-27 12:23:00,28.0,23.0,28.67,SSE,155,9.2,9.2,81,0.00,OVC,FEW,0.00,0.0,WeatherDisplay:10.37,2013-03-27 11:23:00,
2013-03-27 12:28:00,28.0,23.0,28.70,South,170,11.5,11.5,81,0.00,OVC,FEW,0.00,0.0,WeatherDisplay:10.37,2013-03-27 11:28:00,
2013-03-27 12:33:00,28.2,23.4,28.70,East,80,8.1,8.1,82,0.00,OVC,FEW,0.00,0.0,WeatherDisplay:10.37,2013-03-27 11:33:00,
2013-03-27 12:38:00,28.2,23.4,28.70,East,80,8.1,8.1,82,0.00,OVC,FEW,0.00,0.0,WeatherDisplay:10.37,2013-03-27 11:38:00,
2013-03-27 12:43:00,28.4,23.3,28.70,South,190,9.2,9.2,81,0.00,OVC,FEW,0.00,0.0,WeatherDisplay:10.37,2013-03-27 11:43:00,
2013-03-27 12:48:00,28.2,23.4,28.67,South,175,9.2,9.2,82,0.00,OVC,FEW,0.00,0.0,WeatherDisplay:10.37,2013-03-27 11:48:00,
2013-03-27 12:53:00,28.2,23.1,28.67,South,175,11.5,11.5,81,0.00,OVC,FEW,0.00,0.0,WeatherDisplay:10.37,2013-03-27 11:53:00,
2013-03-27 12:58:00,28.9,24.1,28.70,South,185,6.9,6.9,82,0.00,OVC,FEW,0.00,0.0,WeatherDisplay:10.37,2013-03-27 11:58:00,
2013-03-27 13:03:00,28.9,23.5,28.70,SW,215,9.2,9.2,80,0.00,OVC,FEW,0.00,0.0,WeatherDisplay:10.37,2013-03-27 12:03:00,
2013-03-27 13:08:00,28.4,21.8,28.70,South,185,12.7,12.7,76,0.00,OVC,FEW,0.00,0.0,WeatherDisplay:10.37,2013-03-27 12:08:00,
2013-03-27 13:13:00,28.4,21.8,28.70,South,185,12.7,12.7,76,0.00,OVC,FEW,0.00,0.0,WeatherDisplay:10.37,2013-03-27 12:13:00,
2013-03-27 13:18:00,28.6,22.6,28.70,SSW,195,8.1,8.3,78,0.00,OVC,FEW,0.00,0.0,WeatherDisplay:10.37,2013-03-27 12:18:00,
2013-03-27 13:23:00,28.2,22.2,28.70,SSE,160,9.2,9.2,78,0.00,OVC,FEW,0.00,0.0,WeatherDisplay:10.37,2013-03-27 12:23:00,
2013-03-27 13:28:00,28.2,22.2,28.70,South,185,8.1,8.3,78,0.00,OVC,FEW,0.00,0.0,WeatherDisplay:10.37,2013-03-27 12:28:00,
2013-03-27 13:33:00,28.2,22.8,28.70,SSW,200,10.4,10.5,80,0.00,OVC,FEW,0.00,0.0,WeatherDisplay:10.37,2013-03-27 12:33:00,
2013-03-27 13:38:00,28.4,23.0,28.70,South,185,8.3,8.3,80,0.00,OVC,FEW,0.00,0.0,WeatherDisplay:10.37,2013-03-27 12:38:00,
2013-03-27 13:43:00,28.4,23.0,28.70,South,185,8.1,8.3,80,0.00,OVC,FEW,0.00,0.0,WeatherDisplay:10.37,2013-03-27 12:43:00,
2013-03-27 13:48:00,28.2,23.1,28.70,South,175,8.1,8.1,81,0.00,OVC,FEW,0.00,0.0,WeatherDisplay:10.37,2013-03-27 12:48:00,
2013-03-27 13:53:00,28.4,23.3,28.70,SSE,165,8.1,8.3,81,0.00,OVC,FEW,0.00,0.0,WeatherDisplay:10.37,2013-03-27 12:53:00,
2013-03-27 13:58:00,28.0,23.5,28.70,South,180,9.2,9.4,83,0.00,OVC,FEW,0.00,0.0,WeatherDisplay:10.37,2013-03-27 12:58:00,
2013-03-27 14:03:00,28.2,24.0,28.70,SE,140,9.2,9.2,84,0.00,OVC,FEW,0.00,0.0,WeatherDisplay:10.37,2013-03-27 13:03:00,
2013-03-27 14:08:00,28.2,24.0,28.70,SSE,155,9.2,9.2,84,0.00,OVC,FEW,0.00,0.0,WeatherDisplay:10.37,2013-03-27 13:08:00,
2013-03-27 14:13:00,28.6,24.6,28.70,SSE,165,8.1,8.1,85,0.00,OVC,FEW,0.00,0.0,WeatherDisplay:10.37,2013-03-27 13:13:00,
2013-03-27 14:18:00,28.6,24.6,28.70,SSE,165,8.1,8.1,85,0.00,OVC,FEW,0.00,0.0,WeatherDisplay:10.37,2013-03-27 13:18:00,
2013-03-27 14:23:00,28.2,24.3,28.70,SSE,160,8.1,8.1,85,0.00,OVC,FEW,0.00,0.0,WeatherDisplay:10.37,2013-03-27 13:23:00,
2013-03-27 14:28:00,28.6,24.4,28.70,SE,140,9.2,9.2,84,0.00,OVC,FEW,0.00,0.0,WeatherDisplay:10.37,2013-03-27 13:28:00,
2013-03-27 14:33:00,29.3,24.8,28.70,SE,135,8.1,8.3,83,0.00,OVC,FEW,0.00,0.0,WeatherDisplay:10.37,2013-03-27 13:33:00,
2013-03-27 14:38:00,29.3,24.5,28.70,SE,145,8.1,8.1,82,0.00,OVC,FEW,0.00,0.0,WeatherDisplay:10.37,2013-03-27 13:38:00,
2013-03-27 14:43:00,29.3,24.5,28.70,SE,145,8.1,8.1,82,0.00,OVC,FEW,0.00,0.0,WeatherDisplay:10.37,2013-03-27 13:43:00,
2013-03-27 14:48:00,28.9,24.1,28.70,SSE,155,9.2,9.4,82,0.00,OVC,FEW,0.00,0.0,WeatherDisplay:10.37,2013-03-27 13:48:00,
2013-03-27 14:53:00,29.1,24.3,28.70,South,175,9.2,9.8,82,0.00,OVC,FEW,0.00,0.0,WeatherDisplay:10.37,2013-03-27 13:53:00,
2013-03-27 14:58:00,28.9,24.4,28.70,South,180,8.1,8.1,83,0.00,OVC,FEW,0.00,0.0,WeatherDisplay:10.37,2013-03-27 13:58:00,
2013-03-27 15:03:00,28.8,24.5,28.70,SSE,155,8.1,8.1,84,0.00,OVC,FEW,0.00,0.0,WeatherDisplay:10.37,2013-03-27 14:03:00,
2013-03-27 15:08:00,28.2,24.6,28.70,SE,130,11.5,11.5,86,0.00,OVC,FEW,0.00,0.0,WeatherDisplay:10.37,2013-03-27 14:08:00,
2013-03-27 15:13:00,28.6,24.6,28.70,SSW,195,8.1,8.1,85,0.00,OVC,FEW,0.00,0.0,WeatherDisplay:10.37,2013-03-27 14:13:00,
2013-03-27 15:18:00,28.6,24.6,28.70,SSW,195,8.1,8.1,85,0.00,OVC,FEW,0.00,0.0,WeatherDisplay:10.37,2013-03-27 14:18:00,
2013-03-27 15:23:00,28.4,24.7,28.70,WSW,245,6.9,6.9,86,0.00,OVC,FEW,0.00,0.0,WeatherDisplay:10.37,2013-03-27 14:23:00,
2013-03-27 15:28:00,28.4,25.0,28.70,South,170,5.8,6.0,87,0.00,OVC,FEW,0.00,0.0,WeatherDisplay:10.37,2013-03-27 14:28:00,
2013-03-27 15:33:00,28.9,25.6,28.70,SSW,200,5.8,6.0,87,0.00,OVC,FEW,0.00,0.0,WeatherDisplay:10.37,2013-03-27 14:33:00,
2013-03-27 15:38:00,28.9,25.6,28.70,South,185,5.8,5.8,87,0.00,OVC,FEW,0.00,0.0,WeatherDisplay:10.37,2013-03-27 14:38:00,
2013-03-27 15:43:00,28.9,25.6,28.70,South,185,5.8,5.8,87,0.00,OVC,FEW,0.00,0.0,WeatherDisplay:10.37,2013-03-27 14:43:00,
2013-03-27 15:48:00,28.9,25.6,28.70,South,185,5.8,6.0,87,0.00,OVC,FEW,0.00,0.0,WeatherDisplay:10.37,2013-03-27 14:48:00,
2013-03-27 15:53:00,28.9,25.6,28.70,SSE,150,6.9,6.9,87,0.00,OVC,FEW,0.00,0.0,WeatherDisplay:10.37,2013-03-27 14:53:00,
2013-03-27 15:58:00,28.8,25.1,28.70,South,175,5.8,6.2,86,0.00,OVC,FEW,0.00,0.0,WeatherDisplay:10.37,2013-03-27 14:58:00,
2013-03-27 16:03:00,28.9,25.3,28.70,South,175,8.1,8.1,86,0.00,OVC,FEW,0.00,0.0,WeatherDisplay:10.37,2013-03-27 15:03:00,
2013-03-27 16:08:00,29.1,25.5,28.70,SSW,200,6.9,7.0,86,0.00,OVC,FEW,0.00,0.0,WeatherDisplay:10.37,2013-03-27 15:08:00,
2013-03-27 16:13:00,28.9,25.0,28.70,SSE,150,8.1,8.5,85,0.00,OVC,FEW,0.00,0.0,WeatherDisplay:10.37,2013-03-27 15:13:00,
2013-03-27 16:18:00,28.9,25.0,28.70,SSE,150,8.1,8.5,85,0.00,OVC,FEW,0.00,0.0,WeatherDisplay:10.37,2013-03-27 15:18:00,
2013-03-27 16:23:00,28.6,24.9,28.70,SSE,160,5.8,6.0,86,0.00,OVC,FEW,0.00,0.0,WeatherDisplay:10.37,2013-03-27 15:23:00,
2013-03-27 16:28:00,28.8,25.1,28.70,South,175,6.9,7.3,86,0.00,OVC,FEW,0.00,0.0,WeatherDisplay:10.37,2013-03-27 15:28:00,
2013-03-27 16:33:00,28.8,25.1,28.70,South,175,6.9,7.3,86,0.00,OVC,FEW,0.00,0.0,WeatherDisplay:10.37,2013-03-27 15:33:00,
2013-03-27 16:38:00,28.8,25.4,28.70,SW,215,5.8,6.0,87,0.00,OVC,FEW,0.00,0.0,WeatherDisplay:10.37,2013-03-27 15:38:00,
2013-03-27 16:43:00,28.8,25.4,28.70,SW,215,5.8,6.0,87,0.00,OVC,FEW,0.00,0.0,WeatherDisplay:10.37,2013-03-27 15:43:00,
2013-03-27 16:48:00,28.6,24.9,28.70,South,180,4.6,5.1,86,0.00,OVC,FEW,0.00,0.0,WeatherDisplay:10.37,2013-03-27 15:48:00,
2013-03-27 16:53:00,28.6,25.2,28.70,SSE,165,5.8,5.8,87,0.00,OVC,FEW,0.00,0.0,WeatherDisplay:10.37,2013-03-27 15:53:00,
2013-03-27 16:58:00,28.8,25.7,28.70,SSE,150,6.9,6.9,88,0.00,OVC,FEW,0.00,0.0,WeatherDisplay:10.37,2013-03-27 15:58:00,
2013-03-27 17:03:00,28.9,25.8,28.70,SSE,150,9.2,9.2,88,0.00,OVC,FEW,0.00,0.0,WeatherDisplay:10.37,2013-03-27 16:03:00,
2013-03-27 17:08:00,28.8,25.7,28.70,South,175,8.1,8.5,88,0.00,OVC,FEW,0.00,0.0,WeatherDisplay:10.37,2013-03-27 16:08:00,
2013-03-27 17:13:00,28.9,25.8,28.70,SSW,205,4.6,4.9,88,0.00,OVC,FEW,0.00,0.0,WeatherDisplay:10.37,2013-03-27 16:13:00,
2013-03-27 17:18:00,28.9,25.8,28.70,SSW,205,4.6,4.9,88,0.00,OVC,FEW,0.00,0.0,WeatherDisplay:10.37,2013-03-27 16:18:00,
2013-03-27 17:23:00,28.9,25.8,28.70,South,170,4.6,4.6,88,0.00,OVC,FEW,0.00,0.0,WeatherDisplay:10.37,2013-03-27 16:23:00,
2013-03-27 17:28:00,28.9,25.6,28.70,SSE,150,4.6,4.6,87,0.00,OVC,FEW,0.00,0.0,WeatherDisplay:10.37,2013-03-27 16:28:00,
2013-03-27 17:33:00,28.9,25.3,28.70,South,180,5.8,6.2,86,0.00,OVC,FEW,0.00,0.0,WeatherDisplay:10.37,2013-03-27 16:33:00,
2013-03-27 17:38:00,28.9,25.6,28.70,SSE,155,4.6,4.6,87,0.00,OVC,FEW,0.00,0.0,WeatherDisplay:10.37,2013-03-27 16:38:00,
2013-03-27 17:43:00,28.9,25.6,28.70,SSE,155,4.6,4.6,87,0.00,OVC,FEW,0.00,0.0,WeatherDisplay:10.37,2013-03-27 16:43:00,
2013-03-27 17:48:00,28.8,25.4,28.70,South,175,5.8,6.0,87,0.00,OVC,FEW,0.00,0.0,WeatherDisplay:10.37,2013-03-27 16:48:00,
2013-03-27 17:53:00,28.8,25.4,28.70,SSW,195,5.8,5.8,87,0.00,OVC,FEW,0.00,0.0,WeatherDisplay:10.37,2013-03-27 16:53:00,
2013-03-27 17:58:00,28.9,25.6,28.70,South,170,8.1,8.1,87,0.00,OVC,FEW,0.00,0.0,WeatherDisplay:10.37,2013-03-27 16:58:00,
2013-03-27 18:03:00,28.9,25.6,28.70,SE,140,5.8,6.2,87,0.00,OVC,FEW,0.00,0.0,WeatherDisplay:10.37,2013-03-27 17:03:00,
2013-03-27 18:08:00,28.9,25.6,28.70,South,190,6.9,6.9,87,0.00,OVC,FEW,0.00,0.0,WeatherDisplay:10.37,2013-03-27 17:08:00,
2013-03-27 18:13:00,28.9,25.6,28.70,SSW,205,9.2,9.2,87,0.00,OVC,FEW,0.00,0.0,WeatherDisplay:10.37,2013-03-27 17:13:00,
2013-03-27 18:18:00,28.9,25.6,28.70,SSW,205,9.2,9.2,87,0.00,OVC,FEW,0.00,0.0,WeatherDisplay:10.37,2013-03-27 17:18:00,
2013-03-27 18:23:00,28.9,25.6,28.70,SSE,160,5.8,5.8,87,0.00,OVC,FEW,0.00,0.0,WeatherDisplay:10.37,2013-03-27 17:23:00,
2013-03-27 18:28:00,28.8,25.4,28.70,SE,140,5.8,5.8,87,0.00,OVC,FEW,0.00,0.0,WeatherDisplay:10.37,2013-03-27 17:28:00,
2013-03-27 18:33:00,28.8,25.4,28.70,SE,140,5.8,5.8,87,0.00,OVC,FEW,0.00,0.0,WeatherDisplay:10.37,2013-03-27 17:33:00,
2013-03-27 18:38:00,28.8,25.4,28.70,SSE,160,5.8,6.0,87,0.00,OVC,FEW,0.00,0.0,WeatherDisplay:10.37,2013-03-27 17:38:00,
2013-03-27 18:43:00,28.8,25.4,28.70,SSE,160,5.8,6.0,87,0.00,OVC,FEW,0.00,0.0,WeatherDisplay:10.37,2013-03-27 17:43:00,
2013-03-27 18:48:00,28.8,25.4,28.70,South,185,5.8,6.0,87,0.00,OVC,FEW,0.00,0.0,WeatherDisplay:10.37,2013-03-27 17:48:00,
2013-03-27 18:53:00,28.8,25.4,28.70,SSW,195,4.6,5.1,87,0.00,OVC,FEW,0.00,0.0,WeatherDisplay:10.37,2013-03-27 17:53:00,
2013-03-27 18:58:00,28.9,25.6,28.70,South,170,3.5,4.0,87,0.00,CLR,FEW,0.00,0.0,WeatherDisplay:10.37,2013-03-27 17:58:00,
2013-03-27 19:03:00,28.9,25.6,28.70,South,175,5.8,5.8,87,0.00,CLR,FEW,0.00,0.0,WeatherDisplay:10.37,2013-03-27 18:03:00,
2013-03-27 19:08:00,28.9,25.6,28.70,SSW,200,3.5,3.5,87,0.00,CLR,FEW,0.00,0.0,WeatherDisplay:10.37,2013-03-27 18:08:00,
2013-03-27 19:13:00,28.9,25.6,28.70,SSE,165,4.6,4.9,87,0.00,CLR,FEW,0.00,0.0,WeatherDisplay:10.37,2013-03-27 18:13:00,
2013-03-27 19:18:00,28.9,25.6,28.70,SSE,165,4.6,4.9,87,0.00,CLR,FEW,0.00,0.0,WeatherDisplay:10.37,2013-03-27 18:18:00,
2013-03-27 19:23:00,28.9,25.6,28.70,South,185,4.6,4.9,87,0.00,CLR,FEW,0.00,0.0,WeatherDisplay:10.37,2013-03-27 18:23:00,
2013-03-27 19:28:00,28.9,25.6,28.73,South,170,4.6,5.1,87,0.00,CLR,FEW,0.00,0.0,WeatherDisplay:10.37,2013-03-27 18:28:00,
2013-03-27 19:33:00,28.9,25.6,28.73,SSW,195,3.5,3.5,87,0.00,CLR,FEW,0.00,0.0,WeatherDisplay:10.37,2013-03-27 18:33:00,
2013-03-27 19:38:00,28.9,25.6,28.73,SSW,195,2.3,2.3,87,0.00,CLR,FEW,0.00,0.0,WeatherDisplay:10.37,2013-03-27 18:38:00,
2013-03-27 19:43:00,28.9,25.6,28.73,SSW,195,2.3,2.3,87,0.00,CLR,FEW,0.00,0.0,WeatherDisplay:10.37,2013-03-27 18:43:00,
2013-03-27 19:48:00,28.9,25.6,28.73,South,190,1.1,1.1,87,0.00,CLR,FEW,0.00,0.0,WeatherDisplay:10.37,2013-03-27 18:48:00,
2013-03-27 19:53:00,28.9,25.6,28.73,SSW,195,1.1,1.1,87,0.00,CLR,FEW,0.00,0.0,WeatherDisplay:10.37,2013-03-27 18:53:00,
2013-03-27 19:58:00,28.9,25.3,28.70,South,185,2.3,2.4,86,0.00,CLR,FEW,0.00,0.0,WeatherDisplay:10.37,2013-03-27 18:58:00,
2013-03-27 20:03:00,28.9,25.3,28.70,SW,220,2.3,2.4,86,0.00,CLR,FEW,0.00,0.0,WeatherDisplay:10.37,2013-03-27 19:03:00,
2013-03-27 20:08:00,28.9,25.3,28.70,SSW,195,2.3,2.3,86,0.00,CLR,FEW,0.00,0.0,WeatherDisplay:10.37,2013-03-27 19:08:00,
2013-03-27 20:13:00,28.9,25.3,28.70,SSE,160,1.1,1.7,86,0.00,CLR,FEW,0.00,0.0,WeatherDisplay:10.37,2013-03-27 19:13:00,
2013-03-27 20:18:00,28.9,25.3,28.70,SSE,160,1.1,1.7,86,0.00,CLR,FEW,0.00,0.0,WeatherDisplay:10.37,2013-03-27 19:18:00,
2013-03-27 20:23:00,28.9,25.3,28.70,South,170,2.3,2.4,86,0.00,CLR,FEW,0.00,0.0,WeatherDisplay:10.37,2013-03-27 19:23:00,
2013-03-27 20:28:00,28.8,25.4,28.73,South,175,2.3,2.3,87,0.00,CLR,FEW,0.00,0.0,WeatherDisplay:10.37,2013-03-27 19:28:00,
2013-03-27 20:33:00,28.6,25.2,28.73,SSE,155,2.3,2.8,87,0.00,CLR,FEW,0.00,0.0,WeatherDisplay:10.37,2013-03-27 19:33:00,
2013-03-27 20:38:00,28.6,25.5,28.73,SSE,160,1.1,1.5,88,0.00,CLR,FEW,0.00,0.0,WeatherDisplay:10.37,2013-03-27 19:38:00,
2013-03-27 20:43:00,28.6,25.5,28.73,SSE,160,1.1,1.5,88,0.00,CLR,FEW,0.00,0.0,WeatherDisplay:10.37,2013-03-27 19:43:00,
2013-03-27 20:48:00,28.6,25.5,28.73,SSE,165,2.3,2.4,88,0.00,CLR,FEW,0.00,0.0,WeatherDisplay:10.37,2013-03-27 19:48:00,
2013-03-27 20:53:00,28.4,25.3,28.73,South,170,2.3,2.3,88,0.00,CLR,FEW,0.00,0.0,WeatherDisplay:10.37,2013-03-27 19:53:00,
2013-03-27 20:58:00,28.2,25.4,28.70,South,180,2.3,2.3,89,0.00,CLR,FEW,0.00,0.0,WeatherDisplay:10.37,2013-03-27 19:58:00,
2013-03-27 21:04:00,28.2,25.4,28.70,South,185,1.1,1.1,89,0.00,CLR,FEW,0.00,0.0,WeatherDisplay:10.37,2013-03-27 20:04:00,
2013-03-27 21:09:00,28.2,25.4,28.70,SSE,165,1.1,1.3,89,0.00,CLR,FEW,0.00,0.0,WeatherDisplay:10.37,2013-03-27 20:09:00,
2013-03-27 21:14:00,28.2,25.7,28.73,South,170,1.1,1.5,90,0.00,CLR,FEW,0.00,0.0,WeatherDisplay:10.37,2013-03-27 20:14:00,
2013-03-27 21:19:00,28.2,25.7,28.73,South,170,1.1,1.5,90,0.00,CLR,FEW,0.00,0.0,WeatherDisplay:10.37,2013-03-27 20:19:00,
2013-03-27 21:24:00,28.2,25.7,28.73,SSE,165,2.3,2.4,90,0.00,CLR,FEW,0.00,0.0,WeatherDisplay:10.37,2013-03-27 20:24:00,
2013-03-27 21:29:00,28.2,25.7,28.73,SSW,195,2.3,2.3,90,0.00,CLR,FEW,0.00,0.0,WeatherDisplay:10.37,2013-03-27 20:29:00,
2013-03-27 21:34:00,28.0,25.5,28.73,SSE,165,2.3,2.3,90,0.00,CLR,FEW,0.00,0.0,WeatherDisplay:10.37,2013-03-27 20:34:00,
2013-03-27 21:39:00,28.0,25.5,28.73,SSW,200,0.0,0.0,90,0.00,CLR,FEW,0.00,0.0,WeatherDisplay:10.37,2013-03-27 20:39:00,
2013-03-27 21:44:00,28.0,25.5,28.73,SSW,200,0.0,0.0,90,0.00,CLR,FEW,0.00,0.0,WeatherDisplay:10.37,2013-03-27 20:44:00,
2013-03-27 21:49:00,28.0,25.5,28.70,South,185,0.0,0.0,90,0.00,CLR,FEW,0.00,0.0,WeatherDisplay:10.37,2013-03-27 20:49:00,
2013-03-27 21:54:00,28.0,25.5,28.70,South,175,0.0,0.0,90,0.00,CLR,FEW,0.00,0.0,WeatherDisplay:10.37,2013-03-27 20:54:00,
2013-03-27 21:59:00,27.9,25.3,28.70,SSW,200,0.0,0.0,90,0.00,CLR,FEW,0.00,0.0,WeatherDisplay:10.37,2013-03-27 20:59:00,
2013-03-27 22:04:00,27.9,25.3,28.70,SSW,200,0.0,0.0,90,0.00,CLR,FEW,0.00,0.0,WeatherDisplay:10.37,2013-03-27 21:04:00,
2013-03-27 22:09:00,27.7,25.1,28.70,South,185,0.0,0.0,90,0.00,CLR,FEW,0.00,0.0,WeatherDisplay:10.37,2013-03-27 21:09:00,
2013-03-27 22:14:00,27.7,25.1,28.73,South,190,0.0,0.0,90,0.00,CLR,FEW,0.00,0.0,WeatherDisplay:10.37,2013-03-27 21:14:00,
2013-03-27 22:19:00,27.7,25.1,28.73,South,190,0.0,0.0,90,0.00,CLR,FEW,0.00,0.0,WeatherDisplay:10.37,2013-03-27 21:19:00,
2013-03-27 22:24:00,27.7,25.1,28.73,South,190,0.0,0.0,90,0.00,CLR,FEW,0.00,0.0,WeatherDisplay:10.37,2013-03-27 21:24:00,
2013-03-27 22:29:00,27.5,25.0,28.70,South,190,0.0,0.0,90,0.00,CLR,FEW,0.00,0.0,WeatherDisplay:10.37,2013-03-27 21:29:00,
2013-03-27 22:34:00,27.5,25.0,28.70,SSW,200,0.0,0.0,90,0.00,CLR,FEW,0.00,0.0,WeatherDisplay:10.37,2013-03-27 21:34:00,
2013-03-27 22:39:00,27.5,25.0,28.70,SSW,200,0.0,0.0,90,0.00,CLR,FEW,0.00,0.0,WeatherDisplay:10.37,2013-03-27 21:39:00,
2013-03-27 22:44:00,27.5,25.0,28.70,SSW,200,0.0,0.0,90,0.00,CLR,FEW,0.00,0.0,WeatherDisplay:10.37,2013-03-27 21:44:00,
2013-03-27 22:49:00,27.5,25.2,28.70,SSW,200,0.0,0.0,91,0.00,CLR,FEW,0.00,0.0,WeatherDisplay:10.37,2013-03-27 21:49:00,
2013-03-27 22:54:00,27.3,25.0,28.70,SSW,200,0.0,0.0,91,0.00,CLR,FEW,0.00,0.0,WeatherDisplay:10.37,2013-03-27 21:54:00,
2013-03-27 22:59:00,27.3,25.0,28.70,SSW,200,0.0,0.0,91,0.00,CLR,FEW,0.00,0.0,WeatherDisplay:10.37,2013-03-27 21:59:00,
2013-03-27 23:04:00,27.3,25.0,28.70,SSW,200,0.0,0.0,91,0.00,CLR,FEW,0.00,0.0,WeatherDisplay:10.37,2013-03-27 22:04:00,
2013-03-27 23:09:00,27.1,24.9,28.70,SSW,200,0.0,0.0,91,0.00,CLR,FEW,0.00,0.0,WeatherDisplay:10.37,2013-03-27 22:09:00,
2013-03-27 23:14:00,27.1,24.9,28.70,SSW,200,0.0,0.0,91,0.00,CLR,FEW,0.00,0.0,WeatherDisplay:10.37,2013-03-27 22:14:00,
2013-03-27 23:19:00,27.1,24.9,28.70,SSW,200,0.0,0.0,91,0.00,CLR,FEW,0.00,0.0,WeatherDisplay:10.37,2013-03-27 22:19:00,
2013-03-27 23:24:00,27.1,25.1,28.70,SSW,200,0.0,0.0,92,0.00,CLR,FEW,0.00,0.0,WeatherDisplay:10.37,2013-03-27 22:24:00,
2013-03-27 23:29:00,27.0,24.9,28.70,SSW,205,0.0,0.0,92,0.00,CLR,FEW,0.00,0.0,WeatherDisplay:10.37,2013-03-27 22:29:00,
2013-03-27 23:34:00,27.0,24.9,28.70,SSW,200,0.0,0.0,92,0.00,CLR,FEW,0.00,0.0,WeatherDisplay:10.37,2013-03-27 22:34:00,
2013-03-27 23:39:00,27.3,25.3,28.70,SW,220,2.3,2.3,92,0.00,CLR,FEW,0.00,0.0,WeatherDisplay:10.37,2013-03-27 22:39:00,
2013-03-27 23:44:00,27.3,25.3,28.70,SW,215,3.5,3.5,92,0.00,CLR,FEW,0.00,0.0,WeatherDisplay:10.37,2013-03-27 22:44:00,
2013-03-27 23:49:00,27.3,25.3,28.70,SW,215,3.5,3.5,92,0.00,CLR,FEW,0.00,0.0,WeatherDisplay:10.37,2013-03-27 22:49:00,
2013-03-27 23:54:00,27.3,25.0,28.70,SW,225,1.1,1.5,91,0.00,CLR,FEW,0.00,0.0,WeatherDisplay:10.37,2013-03-27 22:54:00,
2013-03-27 23:59:00,27.3,25.0,28.70,SSW,210,2.3,2.3,91,0.00,CLR,FEW,0.00,0.0,WeatherDisplay:10.37,2013-03-27 22:59:00,